createdAt,value
2022-09-29T00:01:13.510Z,1.53
2022-09-29T00:03:41.910Z,2.00
2022-09-29T00:06:14.546Z,1.60
2022-09-29T00:08:42.939Z,1.70
2022-09-29T00:11:12.626Z,1.53
2022-09-29T00:13:42.947Z,1.70
2022-09-29T00:16:12.036Z,1.70
2022-09-29T00:18:40.990Z,1.60
2022-09-29T00:21:14.702Z,1.70
2022-09-29T00:23:43.546Z,1.70
2022-09-29T00:26:13.649Z,1.60
2022-09-29T00:28:48.961Z,1.50
2022-09-29T00:31:17.678Z,1.50
2022-09-29T00:33:45.998Z,1.63
2022-09-29T00:36:17.079Z,1.70
2022-09-29T00:38:46.922Z,1.70
2022-09-29T00:41:18.420Z,1.60
2022-09-29T00:43:58.527Z,1.90
2022-09-29T00:46:36.526Z,1.50
2022-09-29T00:49:09.600Z,1.77
2022-09-29T00:51:40.956Z,1.63
2022-09-29T00:54:10.663Z,1.83
2022-09-29T00:56:42.915Z,1.73
2022-09-29T00:59:17.724Z,1.50
2022-09-29T01:01:46.290Z,1.80
2022-09-29T01:04:20.085Z,1.60
2022-09-29T01:06:51.659Z,1.80
2022-09-29T01:09:22.559Z,1.80
2022-09-29T01:11:52.986Z,1.60
2022-09-29T01:14:23.396Z,1.80
2022-09-29T01:16:51.545Z,1.90
2022-09-29T01:19:29.278Z,2.00
2022-09-29T01:22:05.924Z,1.60
2022-09-29T01:24:59.543Z,1.80
2022-09-29T01:27:47.577Z,1.87
2022-09-29T01:30:24.406Z,2.10
2022-09-29T01:33:24.287Z,2.03
2022-09-29T01:36:03.225Z,2.10
2022-09-29T01:38:45.553Z,1.83
2022-09-29T01:41:21.626Z,2.00
2022-09-29T01:43:55.183Z,2.10
2022-09-29T01:46:27.794Z,1.90
2022-09-29T01:48:59.490Z,2.00
2022-09-29T01:51:34.154Z,2.20
2022-09-29T01:54:10.012Z,2.00
2022-09-29T01:56:45.026Z,2.17
2022-09-29T01:59:19.764Z,1.70
2022-09-29T02:01:52.014Z,2.10
2022-09-29T02:04:27.242Z,2.23
2022-09-29T02:07:00.475Z,2.13
2022-09-29T02:09:34.926Z,2.23
2022-09-29T02:12:07.547Z,2.20
2022-09-29T02:14:41.821Z,2.10
2022-09-29T02:17:19.652Z,2.07
2022-09-29T02:19:53.151Z,2.33
2022-09-29T02:22:21.539Z,2.00
2022-09-29T02:24:53.804Z,2.30
2022-09-29T02:27:23.020Z,2.03
2022-09-29T02:29:52.004Z,2.20
2022-09-29T02:32:20.474Z,2.10
2022-09-29T02:34:53.514Z,2.10
2022-09-29T02:37:36.908Z,2.40
2022-09-29T02:40:18.948Z,2.13
2022-09-29T02:42:57.960Z,2.10
2022-09-29T02:45:38.957Z,2.03
2022-09-29T02:48:43.615Z,2.10
2022-09-29T02:51:19.682Z,2.10
2022-09-29T02:54:00.456Z,2.30
2022-09-29T02:56:40.120Z,2.40
2022-09-29T02:59:13.200Z,2.00
2022-09-29T03:01:50.811Z,2.30
2022-09-29T03:04:19.725Z,2.37
2022-09-29T03:06:49.701Z,2.30
2022-09-29T03:09:17.960Z,2.17
2022-09-29T03:11:46.149Z,2.10
2022-09-29T03:14:14.430Z,2.20
2022-09-29T03:16:43.211Z,2.23
2022-09-29T03:19:11.410Z,1.97
2022-09-29T03:21:40.006Z,2.57
2022-09-29T03:24:09.924Z,2.40
2022-09-29T03:26:38.052Z,2.17
2022-09-29T03:29:06.574Z,2.03
2022-09-29T03:31:34.886Z,1.97
2022-09-29T03:34:03.104Z,2.27
2022-09-29T03:36:31.590Z,2.00
2022-09-29T03:38:59.713Z,1.90
2022-09-29T03:41:29.254Z,2.20
2022-09-29T03:43:57.496Z,1.90
2022-09-29T03:46:26.370Z,2.00
2022-09-29T03:48:55.506Z,2.10
2022-09-29T03:51:23.692Z,2.13
2022-09-29T03:53:51.877Z,2.17
2022-09-29T03:56:19.954Z,1.90
2022-09-29T03:58:50.291Z,2.13
2022-09-29T04:01:19.116Z,2.00
2022-09-29T04:03:47.237Z,2.00
2022-09-29T04:06:15.451Z,2.13
2022-09-29T04:08:44.205Z,2.10
2022-09-29T04:11:12.308Z,2.00
2022-09-29T04:13:40.726Z,2.60
2022-09-29T04:16:10.506Z,2.10
2022-09-29T04:18:39.499Z,2.30
2022-09-29T04:21:09.018Z,2.27
2022-09-29T04:23:38.589Z,2.50
2022-09-29T04:26:07.085Z,2.50
2022-09-29T04:28:36.785Z,2.47
2022-09-29T04:31:05.046Z,2.43
2022-09-29T04:33:35.178Z,2.17
2022-09-29T04:36:03.661Z,2.20
2022-09-29T04:38:31.913Z,2.30
2022-09-29T04:41:00.126Z,2.30
2022-09-29T04:43:28.379Z,2.27
2022-09-29T04:46:03.669Z,2.60
2022-09-29T04:48:36.155Z,2.40
2022-09-29T04:51:05.402Z,2.20
2022-09-29T04:53:33.660Z,2.30
2022-09-29T04:56:07.098Z,2.50
2022-09-29T04:58:35.224Z,2.67
2022-09-29T05:01:08.086Z,2.23
2022-09-29T05:03:37.902Z,2.57
2022-09-29T05:06:06.640Z,2.77
2022-09-29T05:08:34.893Z,3.00
2022-09-29T05:11:05.879Z,2.80
2022-09-29T05:13:34.493Z,2.53
2022-09-29T05:16:03.719Z,2.67
2022-09-29T05:18:32.598Z,2.90
2022-09-29T05:23:54.867Z,2.73
2022-09-29T05:26:23.466Z,2.60
2022-09-29T05:28:51.630Z,2.70
2022-09-29T05:31:20.387Z,2.70
2022-09-29T05:33:48.637Z,2.50
2022-09-29T05:36:18.290Z,2.90
2022-09-29T05:38:46.644Z,2.67
2022-09-29T05:41:16.346Z,2.70
2022-09-29T05:43:44.470Z,2.90
2022-09-29T05:46:12.627Z,3.07
2022-09-29T05:48:41.342Z,2.70
2022-09-29T05:51:11.314Z,2.97
2022-09-29T05:53:44.214Z,2.80
2022-09-29T05:56:14.508Z,3.10
2022-09-29T05:58:43.452Z,2.90
2022-09-29T06:01:14.107Z,3.10
2022-09-29T06:03:42.856Z,2.73
2022-09-29T06:06:16.033Z,2.97
2022-09-29T06:08:46.225Z,3.43
2022-09-29T06:11:17.292Z,3.00
2022-09-29T06:13:47.115Z,3.40
2022-09-29T06:16:16.776Z,3.17
2022-09-29T06:18:45.404Z,3.17
2022-09-29T06:21:15.779Z,2.97
2022-09-29T06:23:46.032Z,3.27
2022-09-29T06:26:20.179Z,3.10
2022-09-29T06:28:51.235Z,3.17
2022-09-29T06:31:22.204Z,3.03
2022-09-29T06:33:50.649Z,2.80
2022-09-29T06:36:39.380Z,3.10
2022-09-29T06:39:10.472Z,2.90
2022-09-29T06:41:38.751Z,2.97
2022-09-29T06:44:07.017Z,3.20
2022-09-29T06:46:35.676Z,2.83
2022-09-29T06:49:04.058Z,3.10
2022-09-29T06:51:43.665Z,2.77
2022-09-29T06:54:17.884Z,2.93
2022-09-29T06:56:49.116Z,3.50
2022-09-29T06:59:17.616Z,3.60
2022-09-29T07:01:51.269Z,3.03
2022-09-29T07:04:21.710Z,2.97
2022-09-29T07:06:50.956Z,2.80
2022-09-29T07:09:21.440Z,2.60
2022-09-29T07:11:51.766Z,2.57
2022-09-29T07:14:22.818Z,2.67
2022-09-29T07:16:52.794Z,2.47
2022-09-29T07:19:21.181Z,2.67
2022-09-29T07:21:49.759Z,2.60
2022-09-29T07:24:18.069Z,3.20
2022-09-29T07:26:47.605Z,2.63
2022-09-29T07:29:16.684Z,2.40
2022-09-29T07:31:52.273Z,2.63
2022-09-29T07:34:21.764Z,2.50
2022-09-29T07:36:50.552Z,2.40
2022-09-29T07:39:19.096Z,2.97
2022-09-29T07:41:48.864Z,2.30
2022-09-29T07:44:17.266Z,2.10
2022-09-29T07:46:45.316Z,2.30
2022-09-29T07:49:14.176Z,2.20
2022-09-29T07:51:42.591Z,2.00
2022-09-29T07:54:11.173Z,2.13
2022-09-29T07:56:39.742Z,2.30
2022-09-29T07:59:12.146Z,2.40
2022-09-29T08:01:40.294Z,2.10
2022-09-29T08:04:08.745Z,2.33
2022-09-29T08:06:37.247Z,1.83
2022-09-29T08:09:05.705Z,2.00
2022-09-29T08:11:34.282Z,1.93
2022-09-29T08:14:03.867Z,1.80
2022-09-29T08:16:34.970Z,1.50
2022-09-29T08:19:03.657Z,1.70
2022-09-29T08:21:36.799Z,1.93
2022-09-29T08:24:06.105Z,2.27
2022-09-29T08:26:43.246Z,2.43
2022-09-29T08:29:16.007Z,2.07
2022-09-29T08:31:47.517Z,2.00
2022-09-29T08:34:16.207Z,1.80
2022-09-29T08:36:44.685Z,2.00
2022-09-29T08:39:13.366Z,2.20
2022-09-29T08:41:52.336Z,1.80
2022-09-29T08:44:37.901Z,2.33
2022-09-29T08:47:20.190Z,2.60
2022-09-29T08:49:53.379Z,2.10
2022-09-29T08:52:25.235Z,1.97
2022-09-29T08:55:07.015Z,2.00
2022-09-29T08:57:40.304Z,2.07
2022-09-29T09:00:12.736Z,2.00
2022-09-29T09:03:00.632Z,2.10
2022-09-29T09:06:05.473Z,1.90
2022-09-29T09:08:46.746Z,1.60
2022-09-29T09:11:27.449Z,1.90
2022-09-29T09:14:08.275Z,1.77
2022-09-29T09:16:47.215Z,2.03
2022-09-29T09:19:41.199Z,1.80
2022-09-29T09:22:21.564Z,1.80
2022-09-29T09:24:56.259Z,1.80
2022-09-29T09:27:28.739Z,1.70
2022-09-29T09:30:05.734Z,1.80
2022-09-29T09:32:40.304Z,1.40
2022-09-29T09:35:26.571Z,1.80
2022-09-29T09:37:59.398Z,2.20
2022-09-29T09:40:32.273Z,1.90
2022-09-29T09:43:11.420Z,1.90
2022-09-29T09:45:49.022Z,1.70
2022-09-29T09:48:27.219Z,1.50
2022-09-29T09:51:02.245Z,1.67
2022-09-29T09:53:38.520Z,1.67
2022-09-29T09:56:17.293Z,1.50
2022-09-29T09:59:01.646Z,1.60
2022-09-29T10:01:29.913Z,1.70
2022-09-29T10:04:01.085Z,2.20
2022-09-29T10:06:31.304Z,1.60
2022-09-29T10:08:59.631Z,1.87
2022-09-29T10:11:31.963Z,1.77
2022-09-29T10:14:05.446Z,1.60
2022-09-29T10:16:41.758Z,1.60
2022-09-29T10:19:11.875Z,2.27
2022-09-29T10:21:43.903Z,2.10
2022-09-29T10:24:31.067Z,1.60
2022-09-29T10:27:02.819Z,2.17
2022-09-29T10:29:35.718Z,2.00
2022-09-29T10:32:07.702Z,1.93
2022-09-29T10:34:38.714Z,1.80
2022-09-29T10:37:23.753Z,2.07
2022-09-29T10:39:52.835Z,2.20
2022-09-29T10:42:25.957Z,2.20
2022-09-29T10:44:56.703Z,1.90
2022-09-29T10:47:25.505Z,1.80
2022-09-29T10:50:14.665Z,1.80
2022-09-29T10:52:49.133Z,2.57
2022-09-29T10:55:20.765Z,1.30
2022-09-29T10:57:49.678Z,1.40
2022-09-29T11:00:33.126Z,1.80
2022-09-29T11:03:07.490Z,1.20
2022-09-29T11:05:37.922Z,1.40
2022-09-29T11:08:14.438Z,1.97
2022-09-29T11:10:43.782Z,1.83
2022-09-29T11:13:47.348Z,1.50
2022-09-29T11:16:18.197Z,1.87
2022-09-29T11:18:50.486Z,1.43
2022-09-29T11:21:50.465Z,1.23
2022-09-29T11:24:31.451Z,1.50
2022-09-29T11:27:07.076Z,1.50
2022-09-29T11:29:46.025Z,2.07
2022-09-29T11:32:35.769Z,1.57
2022-09-29T11:35:18.947Z,1.40
2022-09-29T11:38:11.303Z,1.47
2022-09-29T11:40:51.836Z,1.43
2022-09-29T11:43:41.730Z,1.70
2022-09-29T11:46:33.075Z,1.40
2022-09-29T11:49:17.342Z,1.37
2022-09-29T11:52:09.849Z,1.60
2022-09-29T11:54:57.719Z,1.40
2022-09-29T11:57:41.211Z,1.70
2022-09-29T12:00:12.690Z,1.40
2022-09-29T12:03:21.224Z,1.47
2022-09-29T12:06:18.685Z,1.30
2022-09-29T12:09:02.711Z,1.50
2022-09-29T12:11:54.717Z,1.50
2022-09-29T12:14:41.278Z,1.60
2022-09-29T12:17:17.634Z,1.60
2022-09-29T12:19:48.635Z,1.50
2022-09-29T12:22:20.886Z,1.97
2022-09-29T12:24:53.095Z,1.80
2022-09-29T12:27:26.285Z,1.57
2022-09-29T12:30:03.604Z,1.97
2022-09-29T12:32:38.777Z,1.50
2022-09-29T12:35:18.073Z,1.87
2022-09-29T12:37:53.753Z,1.50
2022-09-29T12:40:33.001Z,1.70
2022-09-29T12:43:07.296Z,1.83
2022-09-29T12:45:47.083Z,1.80
2022-09-29T12:48:27.911Z,1.70
2022-09-29T12:51:02.396Z,1.57
2022-09-29T12:53:36.004Z,1.40
2022-09-29T12:56:07.477Z,1.30
2022-09-29T12:58:42.541Z,1.50
2022-09-29T13:01:24.114Z,1.53
2022-09-29T13:04:23.436Z,1.50
2022-09-29T13:07:29.500Z,1.20
2022-09-29T13:10:23.366Z,1.50
2022-09-29T13:13:31.414Z,1.80
2022-09-29T13:16:15.385Z,1.80
2022-09-29T13:19:39.461Z,1.40
2022-09-29T13:22:31.742Z,1.77
2022-09-29T13:25:12.142Z,1.70
2022-09-29T13:27:42.839Z,1.70
2022-09-29T13:30:16.556Z,1.60
2022-09-29T13:32:48.133Z,1.77
2022-09-29T13:35:24.172Z,1.73
2022-09-29T13:37:55.355Z,1.80
2022-09-29T13:40:25.768Z,1.97
2022-09-29T13:42:56.827Z,1.43
2022-09-29T13:45:44.971Z,1.13
2022-09-29T13:48:38.810Z,1.47
2022-09-29T13:51:31.150Z,1.60
2022-09-29T13:54:27.499Z,1.57
2022-09-29T13:57:08.721Z,1.83
2022-09-29T13:59:39.831Z,2.77
2022-09-29T14:02:21.850Z,1.60
2022-09-29T14:04:56.219Z,1.30
2022-09-29T14:07:41.927Z,2.13
2022-09-29T14:10:24.791Z,1.80
2022-09-29T14:12:58.632Z,1.63
2022-09-29T14:15:29.998Z,1.70
2022-09-29T14:18:04.353Z,1.60
2022-09-29T14:20:34.782Z,1.60
2022-09-29T14:23:06.126Z,1.70
2022-09-29T14:25:56.006Z,1.70
2022-09-29T14:28:39.607Z,1.50
2022-09-29T14:31:22.425Z,1.50
2022-09-29T14:33:53.140Z,1.77
2022-09-29T14:36:26.213Z,1.67
2022-09-29T14:39:24.463Z,1.60
2022-09-29T14:41:47.963Z,1.50
2022-09-29T14:44:21.907Z,1.50
2022-09-29T14:47:36.445Z,1.60
2022-09-29T14:50:43.684Z,1.30
2022-09-29T14:53:27.314Z,1.40
2022-09-29T14:56:09.647Z,1.40
2022-09-29T14:59:00.386Z,1.50
2022-09-29T15:01:30.312Z,1.33
2022-09-29T15:04:00.173Z,1.73
2022-09-29T15:06:31.293Z,1.60
2022-09-29T15:09:01.597Z,1.70
2022-09-29T15:11:38.226Z,1.47
2022-09-29T15:14:23.754Z,1.63
2022-09-29T15:17:04.363Z,1.27
2022-09-29T15:19:49.102Z,1.57
2022-09-29T15:22:44.989Z,1.60
2022-09-29T15:25:24.234Z,1.50
2022-09-29T15:27:56.858Z,1.20
2022-09-29T15:30:26.599Z,1.60
2022-09-29T15:33:05.044Z,1.90
2022-09-29T15:35:33.617Z,1.53
2022-09-29T15:38:19.978Z,1.57
2022-09-29T15:40:54.879Z,1.63
2022-09-29T15:43:28.650Z,2.00
2022-09-29T15:46:02.790Z,1.40
2022-09-29T15:48:33.517Z,1.40
2022-09-29T15:51:02.209Z,2.07
2022-09-29T15:53:31.343Z,1.97
2022-09-29T15:56:01.504Z,1.60
2022-09-29T15:58:45.243Z,1.40
2022-09-29T16:01:15.551Z,1.77
2022-09-29T16:03:50.854Z,2.07
2022-09-29T16:06:24.877Z,1.40
2022-09-29T16:08:57.096Z,2.00
2022-09-29T16:11:27.809Z,1.90
2022-09-29T16:14:03.123Z,1.40
2022-09-29T16:16:37.361Z,2.57
2022-09-29T16:19:15.165Z,1.97
2022-09-29T16:21:44.792Z,1.90
2022-09-29T16:24:19.233Z,1.60
2022-09-29T16:26:49.653Z,1.63
2022-09-29T16:29:36.197Z,1.70
2022-09-29T16:32:42.579Z,1.47
2022-09-29T16:35:40.356Z,2.00
2022-09-29T16:38:36.296Z,1.80
2022-09-29T16:41:20.410Z,1.43
2022-09-29T16:43:49.232Z,1.60
2022-09-29T16:46:22.619Z,1.60
2022-09-29T16:48:52.007Z,1.80
2022-09-29T16:51:39.608Z,2.70
2022-09-29T16:54:16.308Z,2.03
2022-09-29T16:56:45.659Z,1.87
2022-09-29T16:59:16.662Z,2.77
2022-09-29T17:01:48.535Z,1.80
2022-09-29T17:04:17.385Z,1.77
2022-09-29T17:06:48.514Z,1.93
2022-09-29T17:09:21.608Z,1.70
2022-09-29T17:11:50.202Z,1.53
2022-09-29T17:14:21.656Z,1.77
2022-09-29T17:16:52.172Z,1.50
2022-09-29T17:19:22.436Z,3.77
2022-09-29T17:21:51.783Z,1.90
2022-09-29T17:24:20.272Z,2.47
2022-09-29T17:27:05.733Z,1.90
2022-09-29T17:29:35.066Z,2.23
2022-09-29T17:32:09.426Z,1.90
2022-09-29T17:34:37.887Z,1.90
2022-09-29T17:37:06.948Z,2.17
2022-09-29T17:39:35.500Z,1.77
2022-09-29T17:42:03.904Z,1.60
2022-09-29T17:44:32.141Z,1.40
2022-09-29T17:47:17.400Z,2.10
2022-09-29T17:49:51.622Z,1.30
2022-09-29T17:52:20.506Z,1.70
2022-09-29T17:54:48.638Z,1.40
2022-09-29T17:57:25.114Z,1.20
2022-09-29T17:59:54.065Z,1.47
2022-09-29T18:02:23.173Z,1.50
2022-09-29T18:04:54.510Z,1.57
2022-09-29T18:07:23.015Z,1.60
2022-09-29T18:09:52.237Z,1.47
2022-09-29T18:12:20.668Z,1.30
2022-09-29T18:14:49.116Z,1.83
2022-09-29T18:17:17.418Z,1.63
2022-09-29T18:19:45.945Z,2.00
2022-09-29T18:22:15.829Z,1.70
2022-09-29T18:24:43.990Z,1.67
2022-09-29T18:27:15.080Z,1.60
2022-09-29T18:29:43.403Z,1.63
2022-09-29T18:32:17.588Z,1.90
2022-09-29T18:34:46.108Z,1.57
2022-09-29T18:37:17.179Z,1.50
2022-09-29T18:39:45.612Z,1.70
2022-09-29T18:42:14.076Z,1.47
2022-09-29T18:44:42.531Z,1.67
2022-09-29T18:47:13.067Z,1.57
2022-09-29T18:49:42.347Z,1.40
2022-09-29T18:52:11.195Z,1.33
2022-09-29T18:54:52.927Z,1.87
2022-09-29T18:57:22.069Z,1.20
2022-09-29T18:59:52.133Z,1.40
2022-09-29T19:02:20.366Z,2.00
2022-09-29T19:04:53.052Z,1.70
2022-09-29T19:07:22.426Z,2.20
2022-09-29T19:09:52.269Z,2.30
2022-09-29T19:12:27.156Z,2.00
2022-09-29T19:14:55.431Z,1.70
2022-09-29T19:17:24.163Z,1.60
2022-09-29T19:19:52.552Z,1.57
2022-09-29T19:22:21.031Z,1.50
2022-09-29T19:24:49.465Z,1.53
2022-09-29T19:27:19.181Z,1.57
2022-09-29T19:29:47.623Z,1.50
2022-09-29T19:32:15.809Z,1.50
2022-09-29T19:34:44.061Z,1.40
2022-09-29T19:37:12.417Z,1.40
2022-09-29T19:39:46.073Z,1.50
2022-09-29T19:42:15.057Z,1.50
2022-09-29T19:44:44.924Z,1.40
2022-09-29T19:47:13.396Z,1.53
2022-09-29T19:49:42.173Z,1.70
2022-09-29T19:52:09.735Z,1.73
2022-09-29T19:54:40.139Z,2.33
2022-09-29T19:57:11.327Z,1.77
2022-09-29T19:59:41.443Z,1.80
2022-09-29T20:02:14.890Z,1.97
2022-09-29T20:04:44.697Z,2.40
2022-09-29T20:07:13.324Z,2.00
2022-09-29T20:09:42.010Z,2.00
2022-09-29T20:12:14.799Z,1.60
2022-09-29T20:14:46.983Z,1.70
2022-09-29T20:17:16.776Z,1.70
2022-09-29T20:19:47.343Z,1.83
2022-09-29T20:22:15.783Z,1.70
2022-09-29T20:24:44.213Z,2.10
2022-09-29T20:27:12.695Z,1.73
2022-09-29T20:29:41.323Z,2.00
2022-09-29T20:32:09.804Z,1.93
2022-09-29T20:34:40.178Z,2.23
2022-09-29T20:37:08.508Z,1.80
2022-09-29T20:39:36.714Z,1.90
2022-09-29T20:42:05.307Z,2.00
2022-09-29T20:44:33.472Z,1.90
2022-09-29T20:47:01.778Z,1.63
2022-09-29T20:49:29.996Z,1.90
2022-09-29T20:52:00.490Z,2.07
2022-09-29T20:54:28.883Z,2.07
2022-09-29T20:56:57.401Z,2.00
2022-09-29T20:59:25.811Z,2.10
2022-09-29T21:01:55.137Z,1.87
2022-09-29T21:04:23.757Z,1.90
2022-09-29T21:06:53.322Z,2.23
2022-09-29T21:09:24.672Z,2.10
2022-09-29T21:11:54.745Z,2.00
2022-09-29T21:14:24.729Z,1.73
2022-09-29T21:16:53.966Z,1.90
2022-09-29T21:19:26.706Z,1.77
2022-09-29T21:21:55.416Z,2.20
2022-09-29T21:24:25.507Z,2.10
2022-09-29T21:26:53.649Z,1.90
2022-09-29T21:29:22.025Z,2.17
2022-09-29T21:31:50.711Z,2.30
2022-09-29T21:34:20.197Z,2.20
2022-09-29T21:36:48.748Z,1.90
2022-09-29T21:39:17.401Z,1.97
2022-09-29T21:41:47.555Z,1.73
2022-09-29T21:44:17.734Z,2.10
2022-09-29T21:46:46.296Z,2.23
2022-09-29T21:49:16.694Z,2.10
2022-09-29T21:51:47.504Z,2.13
2022-09-29T21:54:17.091Z,2.40
2022-09-29T21:56:48.166Z,2.10
2022-09-29T21:59:19.187Z,2.30
2022-09-29T22:01:48.307Z,2.10
2022-09-29T22:04:17.023Z,1.97
2022-09-29T22:06:45.786Z,2.27
2022-09-29T22:09:17.695Z,3.50
2022-09-29T22:11:50.816Z,2.30
2022-09-29T22:14:19.512Z,2.60
2022-09-29T22:16:48.245Z,1.93
2022-09-29T22:19:25.041Z,1.93
2022-09-29T22:21:54.837Z,2.20
2022-09-29T22:24:26.856Z,2.30
2022-09-29T22:26:56.846Z,2.50
2022-09-29T22:29:25.691Z,2.60
2022-09-29T22:31:54.305Z,2.30
2022-09-29T22:34:22.488Z,2.00
2022-09-29T22:36:51.534Z,3.00
2022-09-29T22:39:20.025Z,2.57
2022-09-29T22:41:48.194Z,2.10
2022-09-29T22:44:19.418Z,2.20
2022-09-29T22:46:47.711Z,2.50
2022-09-29T22:49:15.799Z,2.57
2022-09-29T22:51:44.384Z,2.73
2022-09-29T22:54:14.441Z,2.47
2022-09-29T22:56:43.419Z,2.27
2022-09-29T22:59:13.307Z,2.53
2022-09-29T23:01:43.630Z,2.40
2022-09-29T23:04:11.948Z,2.43
2022-09-29T23:06:40.623Z,2.30
2022-09-29T23:09:10.731Z,2.40
2022-09-29T23:11:39.606Z,2.13
2022-09-29T23:14:08.362Z,2.10
2022-09-29T23:16:37.160Z,1.93
2022-09-29T23:19:06.814Z,2.30
2022-09-29T23:21:35.680Z,2.33
2022-09-29T23:24:04.147Z,2.17
2022-09-29T23:26:32.434Z,2.80
2022-09-29T23:29:01.437Z,2.80
2022-09-29T23:31:29.914Z,2.80
2022-09-29T23:34:00.104Z,2.57
2022-09-29T23:36:31.760Z,2.50
2022-09-29T23:39:11.643Z,2.50
2022-09-29T23:41:42.533Z,2.60
2022-09-29T23:44:12.651Z,2.83
2022-09-29T23:46:42.088Z,2.73
2022-09-29T23:49:13.174Z,3.20
2022-09-29T23:51:44.989Z,2.90
2022-09-29T23:54:16.442Z,2.93
2022-09-29T23:56:45.002Z,2.83
2022-09-29T23:59:13.120Z,2.90
